Time;durP1;ratioP1;P1;durP2;ratioP2;P2;SDS_P1;SDS_P2;PMS_P1;PMS_P2;Temp;Humidity;BMP_temperature;BMP_pressure;BME280_temperature;BME280_humidity;BME280_pressure;Samples;Min_cycle;Max_cycle;Signal;HPM_P1;HPM_P2
2023/07/23 00:01:22;;;;;;;7.03;4.13;;;;;;;15.24;100.00;100771.72;4999892;28;20038;-81
2023/07/23 00:03:47;;;;;;;7.78;4.53;;;;;;;15.33;100.00;100776.09;5008038;28;20037;-81
2023/07/23 00:06:13;;;;;;;8.13;4.43;;;;;;;15.28;100.00;100773.72;5007880;28;20053;-80
2023/07/23 00:08:38;;;;;;;8.13;5.13;;;;;;;15.31;100.00;100775.72;5004863;28;20121;-81
2023/07/23 00:11:04;;;;;;;6.00;4.22;;;;;;;15.43;100.00;100775.22;5004548;28;20047;-81
2023/07/23 00:13:29;;;;;;;9.85;5.35;;;;;;;15.31;100.00;100770.09;4993914;28;20793;-81
2023/07/23 00:15:54;;;;;;;7.35;3.78;;;;;;;15.46;100.00;100768.75;4988436;28;20140;-81
2023/07/23 00:18:20;;;;;;;9.45;4.50;;;;;;;15.66;100.00;100771.81;4993523;28;20068;-81
2023/07/23 00:20:46;;;;;;;7.85;4.40;;;;;;;15.50;100.00;100769.53;5007936;28;20041;-80
2023/07/23 00:23:12;;;;;;;8.52;4.72;;;;;;;15.41;100.00;100767.19;4999386;28;20080;-81
2023/07/23 00:25:37;;;;;;;7.43;4.32;;;;;;;15.40;100.00;100761.94;5003427;28;20033;-81
2023/07/23 00:28:03;;;;;;;9.63;4.43;;;;;;;15.48;100.00;100762.72;5000010;28;20158;-81
2023/07/23 00:30:28;;;;;;;9.82;4.32;;;;;;;15.45;100.00;100755.84;4998167;28;20030;-81
2023/07/23 00:32:53;;;;;;;8.80;4.90;;;;;;;15.27;100.00;100750.34;5002034;28;20029;-81
2023/07/23 00:35:20;;;;;;;8.52;4.60;;;;;;;15.50;100.00;100755.44;5000121;28;20383;-81
2023/07/23 00:37:45;;;;;;;10.10;4.07;;;;;;;15.44;100.00;100745.81;5001954;28;20133;-81
2023/07/23 00:40:11;;;;;;;10.63;4.60;;;;;;;15.45;100.00;100730.47;4999101;28;20057;-81
2023/07/23 00:42:37;;;;;;;6.95;4.13;;;;;;;15.43;100.00;100730.06;4995978;28;20042;-81
2023/07/23 00:45:02;;;;;;;7.05;4.38;;;;;;;15.45;100.00;100730.47;5001625;28;20450;-81
2023/07/23 00:47:28;;;;;;;9.10;5.07;;;;;;;15.51;100.00;100728.00;5000614;28;20034;-80
2023/07/23 00:49:54;;;;;;;8.77;3.67;;;;;;;15.62;100.00;100729.53;4997121;28;20025;-81
2023/07/23 00:52:19;;;;;;;9.68;4.90;;;;;;;15.55;100.00;100720.31;4997698;28;20581;-82
2023/07/23 00:54:45;;;;;;;9.25;4.22;;;;;;;15.67;100.00;100716.19;4999943;28;20100;-81
2023/07/23 00:57:11;;;;;;;9.23;3.80;;;;;;;15.72;100.00;100708.09;5003097;28;20030;-82
2023/07/23 00:59:37;;;;;;;5.80;4.55;;;;;;;15.76;100.00;100696.78;4997671;28;20338;-82
2023/07/23 01:02:04;;;;;;;8.23;4.07;;;;;;;15.64;100.00;100684.78;4997057;28;20034;-82
2023/07/23 01:04:29;;;;;;;10.15;4.35;;;;;;;15.50;100.00;100684.91;5000350;28;20030;-82
2023/07/23 01:06:57;;;;;;;6.95;3.90;;;;;;;15.46;100.00;100675.69;4999807;28;20104;-82
2023/07/23 01:09:24;;;;;;;9.32;4.53;;;;;;;15.57;100.00;100659.44;5008369;28;20477;-83
2023/07/23 01:11:51;;;;;;;11.15;4.75;;;;;;;15.53;100.00;100658.66;4997412;28;20452;-82
2023/07/23 01:14:16;;;;;;;9.02;4.70;;;;;;;15.40;100.00;100668.88;5011744;28;20548;-82
2023/07/23 01:16:43;;;;;;;9.25;3.78;;;;;;;15.40;100.00;100655.56;4999394;28;20026;-82
2023/07/23 01:19:11;;;;;;;9.27;4.97;;;;;;;15.45;100.00;100652.31;4996359;28;20037;-82
2023/07/23 01:21:36;;;;;;;9.68;5.32;;;;;;;15.30;100.00;100647.22;5007121;28;20572;-82
2023/07/23 01:24:02;;;;;;;8.15;4.28;;;;;;;15.33;100.00;100643.56;5000179;28;20064;-82
2023/07/23 01:26:27;;;;;;;8.20;4.50;;;;;;;15.16;100.00;100645.31;4999929;28;20087;-81
2023/07/23 01:28:53;;;;;;;7.50;5.15;;;;;;;15.04;100.00;100643.78;4996925;28;20084;-81
2023/07/23 01:31:18;;;;;;;10.13;4.65;;;;;;;15.36;100.00;100640.69;5001364;28;20030;-81
2023/07/23 01:33:45;;;;;;;9.57;4.63;;;;;;;15.38;100.00;100631.81;4998270;28;20324;-82
2023/07/23 01:36:11;;;;;;;6.50;4.13;;;;;;;15.44;100.00;100618.88;4992047;28;20398;-82
2023/07/23 01:38:37;;;;;;;7.32;4.80;;;;;;;15.33;100.00;100623.81;4997127;28;20724;-81
2023/07/23 01:41:03;;;;;;;9.45;4.35;;;;;;;15.34;100.00;100617.75;5014173;28;20030;-82
2023/07/23 01:43:29;;;;;;;9.73;4.78;;;;;;;15.27;100.00;100620.66;4993042;28;20025;-82
2023/07/23 01:45:55;;;;;;;6.82;4.30;;;;;;;15.41;100.00;100623.34;4998761;28;20034;-82
2023/07/23 01:48:22;;;;;;;12.85;5.32;;;;;;;15.55;100.00;100625.19;4999348;28;20029;-82
2023/07/23 01:50:47;;;;;;;8.85;4.88;;;;;;;15.51;100.00;100618.78;4992689;28;20026;-81
2023/07/23 01:53:13;;;;;;;8.73;3.72;;;;;;;15.54;100.00;100625.66;4996683;28;20129;-82
2023/07/23 01:55:38;;;;;;;9.38;4.90;;;;;;;15.51;100.00;100627.25;4996948;28;20331;-82
2023/07/23 01:58:04;;;;;;;9.95;5.32;;;;;;;15.27;100.00;100614.22;4998364;28;20026;-81
2023/07/23 02:00:29;;;;;;;10.60;4.97;;;;;;;15.22;100.00;100618.25;4990032;28;20512;-82
2023/07/23 02:02:54;;;;;;;9.68;4.97;;;;;;;15.42;100.00;100621.31;4994625;28;20310;-82
2023/07/23 02:05:23;;;;;;;7.93;4.25;;;;;;;15.43;100.00;100605.97;4994756;28;20054;-82
2023/07/23 02:07:48;;;;;;;11.13;5.07;;;;;;;15.38;100.00;100606.44;4999092;28;20121;-82
2023/07/23 02:10:14;;;;;;;8.80;4.85;;;;;;;15.27;100.00;100614.22;4994115;28;20071;-82
2023/07/23 02:12:39;;;;;;;9.30;5.43;;;;;;;15.34;100.00;100608.50;4999171;28;20517;-82
2023/07/23 02:15:05;;;;;;;13.15;5.93;;;;;;;15.20;100.00;100604.59;5009667;28;20057;-82
2023/07/23 02:17:31;;;;;;;9.95;6.03;;;;;;;15.06;100.00;100601.09;5010191;28;20059;-82
2023/07/23 02:19:57;;;;;;;13.77;5.63;;;;;;;15.23;100.00;100598.13;4998050;28;20038;-82
2023/07/23 02:22:22;;;;;;;15.30;6.65;;;;;;;15.18;100.00;100590.13;5011011;28;20136;-82
2023/07/23 02:24:47;;;;;;;11.75;5.43;;;;;;;15.22;100.00;100590.06;4994052;28;20034;-82
2023/07/23 02:27:14;;;;;;;11.05;5.82;;;;;;;15.19;100.00;100574.78;5014561;28;20129;-82
2023/07/23 02:29:40;;;;;;;14.40;6.43;;;;;;;15.09;100.00;100580.53;5003479;28;20163;-82
2023/07/23 02:32:06;;;;;;;15.52;6.57;;;;;;;15.17;100.00;100582.88;5001012;28;20128;-82
2023/07/23 02:34:32;;;;;;;12.07;5.90;;;;;;;15.18;100.00;100578.84;4999384;28;20124;-82
2023/07/23 02:36:57;;;;;;;13.88;6.72;;;;;;;15.38;100.00;100575.41;4995741;28;20033;-82
2023/07/23 02:39:22;;;;;;;10.60;6.05;;;;;;;15.32;100.00;100568.63;4996501;28;20038;-82
2023/07/23 02:41:48;;;;;;;14.10;6.80;;;;;;;15.19;100.00;100566.34;4999734;28;20109;-82
2023/07/23 02:44:13;;;;;;;9.23;5.28;;;;;;;15.19;100.00;100566.34;4992870;28;20445;-81
2023/07/23 02:46:39;;;;;;;9.15;5.68;;;;;;;15.34;100.00;100557.75;4996796;28;20032;-82
2023/07/23 02:49:05;;;;;;;10.35;5.13;;;;;;;15.32;100.00;100554.53;4998093;28;20447;-82
2023/07/23 02:51:30;;;;;;;10.65;6.30;;;;;;;15.43;100.00;100549.56;5005295;28;20429;-82
2023/07/23 02:53:56;;;;;;;11.07;5.20;;;;;;;15.34;100.00;100550.06;5016657;28;20025;-82
2023/07/23 02:56:22;;;;;;;11.23;6.13;;;;;;;15.41;100.00;100538.72;4997640;28;20033;-82
2023/07/23 02:58:47;;;;;;;8.93;5.00;;;;;;;15.54;100.00;100532.56;4994975;28;20026;-82
2023/07/23 03:01:13;;;;;;;12.38;6.05;;;;;;;15.53;100.00;100530.94;4996919;28;20391;-82
2023/07/23 03:03:38;;;;;;;12.93;6.65;;;;;;;15.58;100.00;100522.00;4998805;28;20114;-82
2023/07/23 03:06:08;;;;;;;8.35;5.13;;;;;;;15.54;100.00;100522.06;5000578;28;20490;-82
2023/07/23 03:08:33;;;;;;;12.23;6.38;;;;;;;15.53;100.00;100514.81;4993152;28;20477;-82
2023/07/23 03:10:59;;;;;;;10.38;5.78;;;;;;;15.25;100.00;100513.91;5000491;28;20121;-82
2023/07/23 03:13:24;;;;;;;11.15;6.18;;;;;;;15.25;100.00;100511.09;4997327;28;20034;-82
2023/07/23 03:15:49;;;;;;;11.40;5.55;;;;;;;15.28;100.00;100501.00;4993795;28;20412;-82
2023/07/23 03:18:15;;;;;;;10.77;5.32;;;;;;;15.30;100.00;100504.19;4997983;28;20030;-82
2023/07/23 03:20:40;;;;;;;13.85;6.10;;;;;;;15.23;100.00;100501.47;5009874;28;20022;-81
2023/07/23 03:23:06;;;;;;;11.15;5.65;;;;;;;15.24;100.00;100497.41;5002736;28;20045;-81
2023/07/23 03:25:31;;;;;;;9.82;5.22;;;;;;;15.38;100.00;100493.63;4997847;28;20041;-82
2023/07/23 03:27:59;;;;;;;8.65;5.65;;;;;;;15.33;100.00;100494.13;5000131;28;20045;-82
2023/07/23 03:30:27;;;;;;;9.15;4.88;;;;;;;15.38;100.00;100485.97;4997516;28;20495;-82
2023/07/23 03:32:53;;;;;;;11.38;5.50;;;;;;;15.31;100.00;100496.56;4994758;28;20041;-82
2023/07/23 03:35:20;;;;;;;8.30;6.28;;;;;;;15.18;100.00;100496.28;4997975;28;20108;-82
2023/07/23 03:37:45;;;;;;;10.23;4.50;;;;;;;15.34;100.00;100501.34;5001676;28;20157;-81
2023/07/23 03:40:11;;;;;;;12.63;6.38;;;;;;;15.36;100.00;100493.25;4998088;28;20970;-82
2023/07/23 03:42:36;;;;;;;13.10;6.05;;;;;;;15.47;100.00;100493.13;4997178;28;20044;-82
2023/07/23 03:45:02;;;;;;;11.32;6.40;;;;;;;15.45;100.00;100485.09;5001708;28;20144;-82
2023/07/23 03:47:27;;;;;;;9.98;5.20;;;;;;;15.28;100.00;100491.72;4994769;28;20033;-82
2023/07/23 03:49:53;;;;;;;10.00;5.80;;;;;;;15.49;100.00;100497.13;4997576;28;20398;-82
2023/07/23 03:52:18;;;;;;;9.50;5.05;;;;;;;15.45;100.00;100479.44;5004354;28;20146;-82
2023/07/23 03:54:43;;;;;;;9.52;6.38;;;;;;;15.31;100.00;100479.63;5004419;28;20037;-82
2023/07/23 03:57:09;;;;;;;13.02;6.55;;;;;;;15.34;100.00;100479.56;4993654;28;20113;-82
2023/07/23 03:59:40;;;;;;;12.50;7.15;;;;;;;15.32;100.00;100475.59;4997550;28;20044;-81
2023/07/23 04:02:06;;;;;;;8.68;5.55;;;;;;;15.46;100.00;100481.06;4989147;28;20117;-82
2023/07/23 04:04:33;;;;;;;11.30;5.65;;;;;;;15.49;100.00;100480.19;4992977;28;20497;-82
2023/07/23 04:06:58;;;;;;;12.48;5.95;;;;;;;15.56;100.00;100471.66;4995090;28;20066;-82
2023/07/23 04:09:23;;;;;;;11.10;7.18;;;;;;;15.28;100.00;100469.19;4998172;28;20040;-82
2023/07/23 04:11:49;;;;;;;11.05;6.97;;;;;;;15.37;100.00;100458.22;4994852;28;20036;-82
2023/07/23 04:14:15;;;;;;;10.50;6.40;;;;;;;15.30;100.00;100459.06;4983210;28;20033;-82
2023/07/23 04:16:40;;;;;;;9.82;5.45;;;;;;;15.35;100.00;100446.56;4976470;28;20033;-82
2023/07/23 04:19:05;;;;;;;11.48;6.90;;;;;;;15.34;100.00;100456.22;5011852;28;20580;-82
2023/07/23 04:21:31;;;;;;;13.18;6.78;;;;;;;15.27;100.00;100450.69;5003882;28;20030;-82
2023/07/23 04:23:57;;;;;;;11.32;6.70;;;;;;;15.15;100.00;100447.16;4997913;28;20042;-82
2023/07/23 04:26:25;;;;;;;12.73;7.38;;;;;;;15.35;100.00;100444.53;5003753;28;20085;-82
2023/07/23 04:28:51;;;;;;;12.98;6.55;;;;;;;15.53;100.00;100433.00;4993926;28;20081;-82
2023/07/23 04:31:17;;;;;;;12.75;7.75;;;;;;;15.35;100.00;100438.09;4993888;28;20038;-82
2023/07/23 04:33:42;;;;;;;11.95;6.22;;;;;;;15.50;100.00;100442.31;4998201;28;20030;-82
2023/07/23 04:36:08;;;;;;;10.60;6.15;;;;;;;15.54;100.00;100423.34;4994119;28;20471;-82
2023/07/23 04:38:34;;;;;;;10.98;7.32;;;;;;;15.12;100.00;100422.66;5001528;28;20022;-82
2023/07/23 04:40:59;;;;;;;12.55;7.03;;;;;;;15.18;100.00;100414.53;4994265;28;20038;-82
2023/07/23 04:43:24;;;;;;;12.13;6.50;;;;;;;14.94;100.00;100414.38;4992726;28;20056;-82
2023/07/23 04:45:50;;;;;;;13.10;6.28;;;;;;;15.25;100.00;100418.03;5010456;28;20030;-82
2023/07/23 04:48:16;;;;;;;14.70;6.80;;;;;;;15.21;100.00;100403.19;5000789;28;20053;-82
2023/07/23 04:50:42;;;;;;;10.32;6.45;;;;;;;15.38;100.00;100409.03;4990397;28;20025;-82
2023/07/23 04:53:07;;;;;;;10.30;7.03;;;;;;;15.40;100.00;100409.41;4997205;28;20541;-82
2023/07/23 04:55:33;;;;;;;11.35;5.50;;;;;;;15.41;100.00;100399.72;5014312;28;20037;-82
2023/07/23 04:57:59;;;;;;;13.48;6.88;;;;;;;15.35;100.00;100395.78;5001117;28;20032;-82
2023/07/23 05:00:24;;;;;;;15.20;8.25;;;;;;;15.27;100.00;100399.94;5008114;28;20492;-82
2023/07/23 05:02:49;;;;;;;14.55;8.25;;;;;;;15.33;100.00;100389.78;4992926;28;20041;-82
2023/07/23 05:05:15;;;;;;;13.05;7.68;;;;;;;15.14;100.00;100383.56;4996702;28;20566;-81
2023/07/23 05:07:40;;;;;;;11.82;6.55;;;;;;;15.08;100.00;100382.44;4994804;28;20053;-82
2023/07/23 05:10:06;;;;;;;11.55;7.15;;;;;;;15.19;100.00;100383.09;4992096;28;20557;-82
2023/07/23 05:12:32;;;;;;;12.93;7.63;;;;;;;15.06;100.00;100387.69;4999385;28;20290;-82
2023/07/23 05:15:12;;;;;;;11.25;7.22;;;;;;;15.15;100.00;100393.59;5008426;28;20030;-81
2023/07/23 05:17:38;;;;;;;12.98;7.35;;;;;;;15.28;100.00;100385.38;5002728;28;20029;-82
2023/07/23 05:20:06;;;;;;;14.45;7.45;;;;;;;15.19;100.00;100388.72;5015439;28;20142;-82
2023/07/23 05:22:32;;;;;;;14.32;7.18;;;;;;;15.23;100.00;100383.84;5001424;28;20033;-82
2023/07/23 05:24:57;;;;;;;13.02;7.05;;;;;;;15.29;100.00;100391.84;4994190;28;20508;-82
2023/07/23 05:27:23;;;;;;;12.70;6.85;;;;;;;15.34;100.00;100385.72;5000749;28;20025;-82
2023/07/23 05:29:48;;;;;;;13.25;7.03;;;;;;;15.40;100.00;100389.66;5001481;28;20158;-82
2023/07/23 05:32:13;;;;;;;13.25;7.15;;;;;;;15.36;100.00;100380.47;5012634;28;20125;-82
2023/07/23 05:34:39;;;;;;;11.02;7.10;;;;;;;15.40;100.00;100379.19;5001575;28;20045;-82
2023/07/23 05:37:04;;;;;;;12.93;7.70;;;;;;;15.38;100.00;100372.38;4999845;28;20137;-82
2023/07/23 05:39:30;;;;;;;14.32;7.10;;;;;;;15.36;100.00;100372.00;4999212;28;20451;-82
2023/07/23 05:41:55;;;;;;;11.55;7.05;;;;;;;15.43;100.00;100369.06;5004883;28;20036;-82
2023/07/23 05:44:21;;;;;;;11.75;7.15;;;;;;;15.36;100.00;100369.19;4998077;28;20034;-82
2023/07/23 05:46:46;;;;;;;11.40;6.50;;;;;;;15.40;100.00;100367.13;4998099;28;20034;-82
2023/07/23 05:49:11;;;;;;;14.38;7.15;;;;;;;15.49;100.00;100370.19;5002667;28;20038;-82
2023/07/23 05:51:37;;;;;;;13.80;7.07;;;;;;;15.49;100.00;100373.03;5000270;28;20293;-82
2023/07/23 05:54:02;;;;;;;12.88;6.43;;;;;;;15.64;100.00;100363.16;4998976;28;20036;-82
2023/07/23 05:56:29;;;;;;;10.40;6.53;;;;;;;15.60;100.00;100362.41;4997728;28;20052;-82
2023/07/23 05:58:55;;;;;;;13.10;6.93;;;;;;;15.63;100.00;100369.22;4999913;28;20033;-82
2023/07/23 06:01:20;;;;;;;10.25;6.57;;;;;;;15.61;100.00;100366.00;4995321;28;20018;-83
2023/07/23 06:03:45;;;;;;;10.05;6.13;;;;;;;15.68;100.00;100373.56;5000097;28;20036;-83
2023/07/23 06:06:11;;;;;;;12.45;6.68;;;;;;;15.67;100.00;100360.69;5001228;28;20586;-83
2023/07/23 06:08:36;;;;;;;10.02;6.13;;;;;;;15.71;100.00;100361.44;5002333;28;20030;-83
2023/07/23 06:11:01;;;;;;;8.95;5.38;;;;;;;15.79;100.00;100368.59;4998557;28;20196;-83
2023/07/23 06:13:27;;;;;;;9.90;6.60;;;;;;;15.80;100.00;100361.72;4998156;28;20506;-82
2023/07/23 06:15:52;;;;;;;17.40;7.22;;;;;;;15.74;100.00;100366.25;4995530;28;20031;-82
2023/07/23 06:18:18;;;;;;;12.65;7.75;;;;;;;15.62;100.00;100359.97;4993591;28;20033;-82
2023/07/23 06:20:46;;;;;;;12.75;6.68;;;;;;;15.76;100.00;100363.81;4999533;28;20048;-83
2023/07/23 06:23:11;;;;;;;11.35;6.20;;;;;;;15.78;100.00;100361.38;4996955;28;20449;-82
2023/07/23 06:25:37;;;;;;;12.20;6.32;;;;;;;15.77;100.00;100373.84;5005085;28;20063;-83
2023/07/23 06:28:02;;;;;;;13.50;6.45;;;;;;;15.78;100.00;100372.66;5000550;28;20563;-82
2023/07/23 06:30:27;;;;;;;14.45;7.13;;;;;;;15.73;100.00;100370.31;4992275;28;20070;-82
2023/07/23 06:32:53;;;;;;;13.32;6.60;;;;;;;15.74;100.00;100374.72;5012827;28;20068;-82
2023/07/23 06:35:18;;;;;;;13.45;6.63;;;;;;;15.75;100.00;100365.84;4997942;28;20033;-82
2023/07/23 06:37:43;;;;;;;11.35;6.53;;;;;;;15.75;100.00;100367.88;4997887;28;20064;-82
2023/07/23 06:40:09;;;;;;;15.68;6.30;;;;;;;15.73;100.00;100373.94;4997308;28;20139;-82
2023/07/23 06:42:34;;;;;;;11.85;6.38;;;;;;;15.81;100.00;100377.44;4992926;28;20068;-82
2023/07/23 06:45:00;;;;;;;9.45;6.28;;;;;;;15.82;100.00;100379.03;4993011;28;20092;-82
2023/07/23 06:47:25;;;;;;;12.32;5.75;;;;;;;15.77;100.00;100382.31;4994233;28;20045;-81
2023/07/23 06:49:50;;;;;;;13.05;7.68;;;;;;;15.73;100.00;100370.31;4994988;28;20042;-81
2023/07/23 06:52:16;;;;;;;9.85;6.32;;;;;;;15.75;100.00;100368.66;4996098;28;20029;-82
2023/07/23 06:54:42;;;;;;;15.27;6.35;;;;;;;15.75;100.00;100368.66;4998138;28;20540;-82
2023/07/23 06:57:08;;;;;;;13.93;5.72;;;;;;;15.84;100.00;100376.59;4999750;28;20044;-82
2023/07/23 06:59:34;;;;;;;13.15;6.07;;;;;;;15.84;100.00;100360.44;5000931;28;20034;-81
2023/07/23 07:02:00;;;;;;;12.57;6.72;;;;;;;15.85;100.00;100366.88;4994108;28;20056;-81
2023/07/23 07:04:25;;;;;;;13.60;6.45;;;;;;;15.78;100.00;100367.78;4997082;28;20030;-81
2023/07/23 07:06:50;;;;;;;11.85;6.80;;;;;;;15.70;100.00;100363.44;4997953;28;20069;-82
2023/07/23 07:09:16;;;;;;;11.48;6.15;;;;;;;15.76;100.00;100375.09;4995669;28;20032;-82
2023/07/23 07:11:42;;;;;;;16.33;6.18;;;;;;;15.64;100.00;100356.69;4998735;28;20076;-81
2023/07/23 07:14:07;;;;;;;11.50;6.30;;;;;;;15.67;100.00;100369.97;4998673;28;20399;-81
2023/07/23 07:16:33;;;;;;;11.43;5.88;;;;;;;15.71;100.00;100372.72;4991714;28;20040;-81
2023/07/23 07:18:58;;;;;;;10.43;4.85;;;;;;;15.63;100.00;100377.69;4995958;28;20104;-82
2023/07/23 07:21:24;;;;;;;11.07;5.40;;;;;;;15.63;100.00;100375.66;5001912;28;20036;-81
2023/07/23 07:23:49;;;;;;;12.25;5.25;;;;;;;15.69;100.00;100375.19;4995332;28;20038;-81
2023/07/23 07:26:14;;;;;;;12.10;5.38;;;;;;;15.60;100.00;100368.03;4995776;28;20030;-82
2023/07/23 07:28:40;;;;;;;9.75;6.07;;;;;;;15.67;100.00;100372.78;4987245;28;20036;-82
2023/07/23 07:31:05;;;;;;;10.27;5.40;;;;;;;15.72;100.00;100374.34;4996848;28;20029;-82
2023/07/23 07:33:30;;;;;;;10.35;5.57;;;;;;;15.53;100.00;100373.78;5004235;28;20025;-82
2023/07/23 07:35:58;;;;;;;12.48;5.55;;;;;;;15.61;100.00;100375.28;5003248;28;20116;-82
2023/07/23 07:38:23;;;;;;;8.98;4.97;;;;;;;15.70;100.00;100371.91;5005519;28;20029;-82
2023/07/23 07:40:50;;;;;;;23.92;6.43;;;;;;;15.72;100.00;100374.34;4999901;28;20032;-82
2023/07/23 07:43:15;;;;;;;9.48;5.53;;;;;;;15.71;100.00;100372.72;4997101;28;20508;-82
2023/07/23 07:45:40;;;;;;;9.63;6.18;;;;;;;15.68;100.00;100377.19;4999468;28;20062;-82
2023/07/23 07:48:06;;;;;;;8.10;4.93;;;;;;;15.64;100.00;100363.16;5002938;28;20029;-82
2023/07/23 07:50:31;;;;;;;11.93;5.80;;;;;;;15.76;100.00;100366.63;4997427;28;20018;-82
2023/07/23 07:52:56;;;;;;;9.82;5.53;;;;;;;15.79;100.00;100380.69;5004424;28;20513;-82
2023/07/23 07:55:22;;;;;;;8.73;4.88;;;;;;;15.84;100.00;100366.09;4994475;28;20457;-82
2023/07/23 07:57:48;;;;;;;12.23;5.90;;;;;;;15.78;100.00;100367.00;5007263;28;21230;-81
2023/07/23 08:00:14;;;;;;;11.15;5.80;;;;;;;15.82;100.00;100367.75;4990918;28;20037;-82
2023/07/23 08:02:39;;;;;;;11.63;6.57;;;;;;;15.77;100.00;100373.84;5001178;28;20037;-82
2023/07/23 08:05:06;;;;;;;10.18;5.60;;;;;;;15.86;100.00;100379.78;5010375;28;20092;-82
2023/07/23 08:07:32;;;;;;;9.60;5.55;;;;;;;15.92;100.00;100378.06;4998884;28;20018;-83
2023/07/23 08:09:59;;;;;;;10.68;5.65;;;;;;;15.93;100.00;100374.03;5003126;28;20561;-82
2023/07/23 08:12:26;;;;;;;10.32;5.70;;;;;;;15.86;100.00;100385.44;5002192;28;20057;-83
2023/07/23 08:14:53;;;;;;;9.85;5.28;;;;;;;15.85;100.00;100381.00;4998925;28;20038;-82
2023/07/23 08:17:20;;;;;;;8.35;4.93;;;;;;;15.88;100.00;100382.97;4996419;28;20408;-82
2023/07/23 08:19:45;;;;;;;10.73;5.70;;;;;;;15.87;100.00;100381.38;5002993;28;20033;-82
2023/07/23 08:22:11;;;;;;;12.38;5.47;;;;;;;15.93;100.00;100378.88;5002818;28;20427;-82
2023/07/23 08:24:37;;;;;;;10.07;4.40;;;;;;;15.92;100.00;100380.91;5016082;28;20094;-82
2023/07/23 08:27:05;;;;;;;9.25;4.75;;;;;;;16.07;100.00;100378.66;5004771;28;20025;-82
2023/07/23 08:29:33;;;;;;;6.45;4.40;;;;;;;15.96;100.00;100373.19;5001434;28;20032;-82
2023/07/23 08:31:59;;;;;;;9.70;4.60;;;;;;;16.00;100.00;100384.38;5003533;28;20033;-82
2023/07/23 08:34:26;;;;;;;6.55;4.10;;;;;;;16.01;100.00;100386.78;4999264;28;20085;-81
2023/07/23 08:36:52;;;;;;;10.30;4.63;;;;;;;16.19;100.00;100391.34;4995437;28;20136;-80
2023/07/23 08:39:18;;;;;;;7.82;4.93;;;;;;;16.13;100.00;100388.22;5001748;28;20029;-79
2023/07/23 08:42:21;;;;;;;8.10;4.82;;;;;;;16.19;100.00;100391.34;4999541;28;20036;-80
2023/07/23 08:45:27;;;;;;;10.20;4.60;;;;;;;16.05;100.00;100392.41;5020045;28;20029;-79
2023/07/23 08:48:14;;;;;;;8.50;4.70;;;;;;;16.12;100.00;100391.47;5005627;28;20495;-80
2023/07/23 08:50:42;;;;;;;8.27;4.57;;;;;;;16.10;100.00;100382.63;5001249;28;20577;-79
2023/07/23 08:53:10;;;;;;;7.07;3.42;;;;;;;16.02;100.00;100381.94;5011821;28;20026;-80
2023/07/23 08:55:36;;;;;;;8.57;4.47;;;;;;;16.02;100.00;100394.06;5000862;28;20030;-80
2023/07/23 08:58:02;;;;;;;8.88;4.53;;;;;;;16.04;100.00;100391.59;5003948;28;20080;-80
2023/07/23 09:00:29;;;;;;;6.80;4.07;;;;;;;16.02;100.00;100387.59;4991916;28;20129;-80
2023/07/23 09:02:54;;;;;;;5.93;3.75;;;;;;;16.07;100.00;100386.31;4998993;28;20030;-79
2023/07/23 09:05:20;;;;;;;6.38;3.88;;;;;;;16.09;100.00;100392.34;5005655;28;20111;-80
2023/07/23 09:07:46;;;;;;;7.60;4.35;;;;;;;16.13;100.00;100390.22;5001850;28;20148;-79
2023/07/23 09:10:12;;;;;;;7.75;4.70;;;;;;;16.05;100.00;100373.41;5000399;28;20032;-80
2023/07/23 09:12:41;;;;;;;7.28;4.22;;;;;;;16.15;100.00;100376.50;4997522;28;20048;-81
2023/07/23 09:15:07;;;;;;;6.90;4.20;;;;;;;16.21;100.00;100381.25;5001272;28;20034;-80
2023/07/23 09:17:32;;;;;;;7.82;4.35;;;;;;;16.18;100.00;100387.72;4996228;28;20144;-80
2023/07/23 09:19:59;;;;;;;6.53;3.80;;;;;;;16.16;100.00;100387.38;4994956;28;20168;-80
2023/07/23 09:22:24;;;;;;;7.82;4.38;;;;;;;16.23;100.00;100392.09;5010476;28;20030;-80
2023/07/23 09:24:49;;;;;;;6.90;3.67;;;;;;;16.18;100.00;100390.56;5005489;28;20374;-79
2023/07/23 09:27:17;;;;;;;7.50;4.45;;;;;;;16.12;100.00;100394.31;4999825;28;20030;-79
2023/07/23 09:29:42;;;;;;;7.57;4.10;;;;;;;16.24;100.00;100388.06;4994759;28;20052;-80
2023/07/23 09:32:25;;;;;;;7.13;3.97;;;;;;;16.17;100.00;100382.50;5001564;28;20493;-79
2023/07/23 09:34:52;;;;;;;7.47;3.60;;;;;;;16.24;100.00;100390.88;4995023;28;20026;-80
2023/07/23 09:37:17;;;;;;;8.20;4.20;;;;;;;16.30;100.00;100392.00;4997840;28;20038;-79
2023/07/23 09:39:43;;;;;;;6.47;4.40;;;;;;;16.24;100.00;100393.69;4996985;28;20122;-79
2023/07/23 09:42:08;;;;;;;6.47;4.50;;;;;;;16.13;100.00;100396.69;5002872;28;20076;-79
2023/07/23 09:44:38;;;;;;;6.90;3.90;;;;;;;16.19;100.00;100392.16;5005434;28;20076;-79
2023/07/23 09:47:04;;;;;;;7.47;4.40;;;;;;;16.32;100.00;100400.00;4992095;28;20025;-79
2023/07/23 09:49:30;;;;;;;7.95;4.22;;;;;;;16.29;100.00;100393.19;4998210;28;20034;-80
2023/07/23 09:51:56;;;;;;;5.60;4.47;;;;;;;16.28;100.00;100388.00;5001088;28;20461;-79
2023/07/23 09:54:22;;;;;;;6.60;4.22;;;;;;;16.24;100.00;100393.69;4998394;28;20434;-80
2023/07/23 09:56:53;;;;;;;7.25;3.58;;;;;;;16.33;100.00;100398.78;4991482;28;20573;-79
2023/07/23 09:59:18;;;;;;;8.82;4.45;;;;;;;16.36;100.00;100395.09;4989663;28;20038;-80
2023/07/23 10:01:45;;;;;;;6.18;3.90;;;;;;;16.42;100.00;100394.19;5010005;28;20030;-79
2023/07/23 10:04:11;;;;;;;7.03;4.38;;;;;;;16.38;100.00;100393.47;5000472;28;20037;-80
2023/07/23 10:06:37;;;;;;;11.77;5.50;;;;;;;16.33;100.00;100398.78;5005200;28;20073;-79
2023/07/23 10:09:03;;;;;;;7.95;4.95;;;;;;;16.41;100.00;100391.81;4997473;28;20398;-79
2023/07/23 10:11:28;;;;;;;9.80;4.60;;;;;;;16.48;100.00;100399.34;4997380;28;20029;-80
2023/07/23 10:13:54;;;;;;;9.35;4.43;;;;;;;16.41;100.00;100405.91;4993196;28;20516;-80
2023/07/23 10:16:29;;;;;;;7.05;4.65;;;;;;;16.42;100.00;100394.19;4997678;28;20030;-79
2023/07/23 10:18:56;;;;;;;9.45;4.70;;;;;;;16.45;100.00;100398.97;4997763;28;20145;-79
2023/07/23 10:21:22;;;;;;;7.88;4.43;;;;;;;16.43;100.00;100401.44;5012511;28;20026;-79
2023/07/23 10:23:58;;;;;;;7.35;4.25;;;;;;;16.53;100.00;100394.00;5002473;28;20556;-79
2023/07/23 10:26:24;;;;;;;8.48;3.88;;;;;;;16.52;100.00;100403.69;5003466;28;20976;-79
2023/07/23 10:28:55;;;;;;;9.55;5.10;;;;;;;16.50;100.00;100399.72;5008410;28;20033;-80
2023/07/23 10:31:26;;;;;;;8.13;4.22;;;;;;;16.51;100.00;100402.13;4998950;28;20061;-79
2023/07/23 10:33:52;;;;;;;13.25;5.85;;;;;;;16.51;100.00;100395.66;4994977;28;20026;-79
2023/07/23 10:36:22;;;;;;;10.43;4.95;;;;;;;16.51;100.00;100399.28;4998910;28;20023;-80
2023/07/23 10:39:15;;;;;;;8.10;4.68;;;;;;;16.54;100.00;100403.28;4993333;28;20093;-79
2023/07/23 10:41:55;;;;;;;11.32;5.03;;;;;;;16.62;100.00;100396.28;5004152;28;20089;-79
2023/07/23 10:44:27;;;;;;;9.18;4.88;;;;;;;16.56;100.00;100398.00;5001469;28;20497;-80
2023/07/23 10:46:55;;;;;;;10.15;5.00;;;;;;;16.66;100.00;100402.66;5003450;28;20574;-79
2023/07/23 10:49:23;;;;;;;8.88;4.68;;;;;;;16.70;100.00;100402.56;4986716;28;20042;-79
2023/07/23 10:51:52;;;;;;;8.75;4.28;;;;;;;16.73;100.00;100396.06;4998090;28;20096;-80
2023/07/23 10:54:19;;;;;;;6.60;3.55;;;;;;;16.74;100.00;100404.13;4992063;28;20119;-79
2023/07/23 10:56:47;;;;;;;11.90;4.63;;;;;;;16.74;100.00;100392.00;4998742;28;20026;-79
2023/07/23 10:59:19;;;;;;;5.68;3.47;;;;;;;16.99;100.00;100397.22;4994973;28;20076;-81
2023/07/23 11:01:48;;;;;;;9.13;4.73;;;;;;;16.90;100.00;100388.50;4987224;28;20033;-80
2023/07/23 11:04:22;;;;;;;9.93;4.53;;;;;;;16.90;100.00;100382.84;4994963;28;20271;-80
2023/07/23 11:07:00;;;;;;;8.60;4.82;;;;;;;17.05;100.00;100392.66;4994915;28;20136;-80
2023/07/23 11:09:30;;;;;;;6.30;4.55;;;;;;;17.04;100.00;100396.72;5000005;28;20482;-80